»·PEaware :: N16RD KSNA-KSBD

N16RD :: KSNA-KSBD

FLIGHT INFORMATION

Flight Status: Arrived
Operator: Privately registered:
United States
More flights under this callsign
Pilot: Brett B. (12105)
Aircraft: CSA SportCruiser
(CRUZ)
More flights by this aircraft type
Origin: KSNA John Wayne-Orange Co
United States
Destination: KSBD San Bernardino Intl
United States
More flights between these airports :: More routes between these airports
Route: SLI V8 PDZ
File this flight plan on PilotEdge
Remarks: I-4 Test
Altitude:
(Current/Filed)
5,000ft
Speed:
(Current/Filed)
125kts
Departed: 18-Oct-17 09:42 PM
Arrived: 18-Oct-17 10:14 PM
Distance/Time
Traveled:
40nm/0:32
Distance/Time
To Go:
Arrived

Flight Plot

Page will automatically refresh every two minutes.


Map Options




Map Legend


Flown Route
Filed Route
Departure Airport
Arrival Airport
Navaid (VOR, NDB)
Fix

Horizontal Profiles

Position Reports

Time Latitude Longitude Heading Altitude Ground
Speed
18-Oct-17 21:33 33.675412 -117.871526 219 59ft 0kts
18-Oct-17 21:34 33.675412 -117.871526 219 59ft 0kts
18-Oct-17 21:35 33.675412 -117.871526 219 59ft 0kts
18-Oct-17 21:36 33.675412 -117.871526 219 59ft 0kts
18-Oct-17 21:37 33.675411 -117.871527 219 59ft 0kts
18-Oct-17 21:38 33.675411 -117.871527 219 59ft 0kts
18-Oct-17 21:39 33.675411 -117.871527 219 59ft 0kts
18-Oct-17 21:40 33.675411 -117.871527 219 59ft 0kts
18-Oct-17 21:41 33.675411 -117.871527 219 59ft 0kts
18-Oct-17 21:42 33.675411 -117.871527 219 59ft 0kts
18-Oct-17 21:43 33.675411 -117.871527 219 59ft 0kts
18-Oct-17 21:44 33.674835 -117.870971 54 59ft 3kts
18-Oct-17 21:45 33.680932 -117.867130 52 59ft 8kts
18-Oct-17 21:46 33.679960 -117.866120 207 59ft 34kts
18-Oct-17 21:47 33.658806 -117.881902 215 1014ft 99kts
18-Oct-17 21:48 33.637455 -117.904980 229 1938ft 111kts
18-Oct-17 21:49 33.625316 -117.940025 275 2365ft 118kts
18-Oct-17 21:50 33.633946 -117.977937 303 3010ft 115kts
18-Oct-17 21:51 33.660653 -117.997276 332 3757ft 113kts
18-Oct-17 21:52 33.688225 -118.013722 332 4434ft 107kts
18-Oct-17 21:53 33.716173 -118.030084 332 5007ft 121kts
18-Oct-17 21:54 33.747657 -118.048562 332 5000ft 127kts
18-Oct-17 21:55 33.780062 -118.060969 10 4989ft 123kts
18-Oct-17 21:56 33.794504 -118.026425 85 5014ft 128kts
18-Oct-17 21:57 33.800969 -117.984829 72 5000ft 126kts
18-Oct-17 21:58 33.810740 -117.944122 72 5001ft 127kts
18-Oct-17 21:59 33.820195 -117.904818 72 5003ft 131kts
18-Oct-17 22:00 33.830407 -117.862496 72 5002ft 133kts
18-Oct-17 22:01 33.840639 -117.819958 72 5005ft 132kts
18-Oct-17 22:02 33.853081 -117.779536 63 5008ft 127kts
18-Oct-17 22:03 33.865281 -117.739992 72 5002ft 125kts
18-Oct-17 22:04 33.876492 -117.700284 67 4980ft 125kts
18-Oct-17 22:05 33.885926 -117.667377 72 4980ft 125kts
18-Oct-17 22:06 33.895667 -117.626987 72 4979ft 125kts
18-Oct-17 22:07 33.907090 -117.579456 72 4980ft 129kts
18-Oct-17 22:08 33.915440 -117.544774 72 4983ft 131kts
18-Oct-17 22:09 33.942539 -117.520920 21 4994ft 130kts
18-Oct-17 22:10 33.975704 -117.503081 22 4367ft 123kts
18-Oct-17 22:11 34.006143 -117.486798 22 3973ft 112kts
18-Oct-17 22:12 34.027276 -117.460585 66 3632ft 122kts
18-Oct-17 22:13 34.038431 -117.422332 69 3273ft 115kts
18-Oct-17 22:14 34.048922 -117.390107 64 3284ft 112kts
18-Oct-17 22:15 34.060422 -117.354556 69 3121ft 121kts
18-Oct-17 22:16 34.071668 -117.315478 69 2504ft 120kts
18-Oct-17 22:17 34.079587 -117.287677 69 1911ft 77kts
18-Oct-17 22:18 34.086671 -117.264273 69 1472ft 70kts
18-Oct-17 22:19 34.092187 -117.245528 69 1129ft 40kts
18-Oct-17 22:20 34.094124 -117.242114 356 1122ft 0kts
18-Oct-17 22:21 34.094985 -117.242175 356 1122ft 12kts
18-Oct-17 22:22 34.097020 -117.243598 357 1122ft 0kts
18-Oct-17 22:23 34.098722 -117.244703 328 1122ft 11kts
18-Oct-17 22:24 34.099605 -117.245395 239 1122ft 0kts
18-Oct-17 22:25 34.099605 -117.245395 239 1122ft 0kts
18-Oct-17 22:26 34.099605 -117.245396 239 1122ft 0kts
18-Oct-17 22:27 34.099605 -117.245396 239 1122ft 0kts

Navigation Log

Ident Type
Flight plan parsing failed, navigation log unavailable